Change the Weather History Date:

Sunday, March 3, 2013

  Actual Average Record
Temperature  
Mean Temperature 39 °F -  
Max Temperature 51 °F 51 °F - ()
Min Temperature 27 °F 34 °F - ()
Degree Days  
Heating Degree Days 26    
Moisture  
Dew Point 29 °F    
Average Humidity 72    
Maximum Humidity 100    
Minimum Humidity 29    
Precipitation  
Precipitation 0.00 in 0.06 in - ()
Sea Level Pressure  
Sea Level Pressure 30.05 in    
Wind  
Wind Speed 6 mph ()    
Max Wind Speed 12 mph    
Max Gust Speed -    
Visibility 4.7 miles    
Events      
T = Trace of Precipitation, MM = Missing Value Source: Averaged Metar Reports

Daily Weather History Graph

Daily Weather History Graph

Search for Another Location

Airport or City:

Trip Planner

Search our weather history database for the weather conditions in past years. The results will help you decide how hot, cold, wet, or windy it might be!

Date:

Astronomy

Mar. 03, 2013 Rise Set
Actual Time 6:58 AM EET 6:15 PM EET
Civil Twilight 6:29 AM EET 6:44 PM EET
Nautical Twilight 5:55 AM EET 7:17 PM EET
Astronomical Twilight 5:22 AM EET 7:51 PM EET
Moon No Moon Rise 9:43 AM EET
Length of Visible Light 12h 14m
Length of Day
11h 16m
Waning Gibbous, 67% of the Moon is Illuminated
Mar 3
Waning Gibbous
Mar 4
Last Quarter
Mar 11
New
Mar 19
First Quarter
Mar 27
Full

Hourly Weather History & Observations

Time (EET) Temp. Windchill Dew Point Humidity Pressure Visibility Wind Dir Wind Speed Gust Speed Precip Events Conditions
12:00 AM 36 °F - 24 °F 48% 30.15 in 6 mi ENE 6.7 mph - -  
12:00 AM 30.2 °F 21.9 °F 23.0 °F 75% 30.12 in 6.2 mi ENE 9.2 mph - N/A   Unknown
1:00 AM 34 °F - 30 °F 80% 30.16 in 6 mi ENE 6.7 mph - -  
1:00 AM 28.4 °F 19.7 °F 26.6 °F 93% 30.12 in 5.0 mi NE 9.2 mph - N/A   Unknown
2:00 AM 32 °F - 32 °F 100% 30.16 in 6 mi NE 6.7 mph - -  
2:00 AM 30.2 °F 21.9 °F 28.4 °F 93% 30.12 in - NE 9.2 mph - N/A   Mist
3:00 AM 31 °F - 31 °F 100% 30.16 in 6 mi NE 6.7 mph - -  
3:00 AM 28.4 °F 21.2 °F 28.4 °F 100% 30.12 in - NE 6.9 mph - N/A   Mist
4:00 AM 31 °F - 31 °F 99% 30.15 in 6 mi NE 6.7 mph - -  
4:00 AM 26.6 °F 17.5 °F 26.6 °F 100% 30.12 in 1.6 mi ENE 9.2 mph - N/A   Mist
4:30 AM 28.4 °F 23.3 °F 26.6 °F 93% 30.09 in 1.6 mi NNE 4.6 mph - N/A   Mist
5:00 AM 29 °F - 29 °F 100% 30.16 in 6 mi NNE 4.5 mph - -  
5:00 AM 28.4 °F 23.3 °F 26.6 °F 93% 30.09 in 1.1 mi North 4.6 mph - N/A   Mist
5:30 AM 26.6 °F 19.1 °F 26.6 °F 100% 30.12 in 1.2 mi NNW 6.9 mph - N/A   Mist
6:00 AM 29 °F - 29 °F 100% 30.16 in 6 mi NNE 6.7 mph - -  
6:00 AM 26.6 °F 19.1 °F 26.6 °F 100% 30.12 in 1.9 mi North 6.9 mph - N/A   Mist
6:30 AM 24.8 °F 19.1 °F 24.8 °F 100% 30.12 in 1.8 mi North 4.6 mph - N/A   Partly Cloudy
7:00 AM 28.4 °F 23.3 °F 28.4 °F 100% 30.12 in - WNW 4.6 mph - N/A   Overcast
7:30 AM 30.2 °F 25.4 °F 28.4 °F 93% 30.12 in - North 4.6 mph - N/A   Overcast
8:00 AM 29 °F - 29 °F 100% 30.17 in 1 mi North 2.2 mph - -   Mist
8:00 AM 30.2 °F 25.4 °F 28.4 °F 93% 30.12 in 2.8 mi NNE 4.6 mph - N/A   Overcast
8:30 AM 32.0 °F 27.5 °F 30.2 °F 93% 30.12 in 3.1 mi North 4.6 mph - N/A   Mostly Cloudy
9:00 AM 31 °F - 31 °F 100% 30.17 in 1 mi North 4.5 mph - -   Mist
9:00 AM 32.0 °F 27.5 °F 30.2 °F 93% 30.12 in 4.3 mi NNE 4.6 mph - N/A   Overcast
9:30 AM 33.8 °F - 30.2 °F 87% 30.12 in 4.3 mi Variable 2.3 mph - N/A   Mostly Cloudy
10:00 AM 34 °F - 32 °F 91% 30.16 in 1 mi NNE 2.2 mph - -   Mist
11:00 AM 38 °F - 33 °F 77% 30.14 in 1 mi NNW 4.5 mph - -   Mist
11:30 AM 39.2 °F 35.9 °F 32.0 °F 75% 30.09 in 5.0 mi WNW 4.6 mph - N/A   Mostly Cloudy
12:00 PM 40 °F - 34 °F 70% 30.13 in 2 mi NNW 2.2 mph - -   Mist
12:00 PM 41.0 °F - 33.8 °F 76% 30.06 in 5.0 mi Variable 2.3 mph - N/A   Partly Cloudy
12:30 PM 42.8 °F 40.1 °F 33.8 °F 70% 30.06 in - SW 4.6 mph - N/A   Clear
1:00 PM 43 °F - 33 °F 58% 30.09 in 2 mi WSW 4.5 mph - -   Mist
1:00 PM 44.6 °F 40.7 °F 32.0 °F 61% 30.04 in - West 6.9 mph - N/A   Clear
2:00 PM 47 °F - 32 °F 44% 30.05 in 6 mi WSW 6.7 mph - -  
2:00 PM 46.4 °F 42.9 °F 30.2 °F 53% 30.01 in - WSW 6.9 mph - N/A   Clear
3:00 PM 48.2 °F - 30.2 °F 50% 29.98 in - SW 11.5 mph - N/A   Clear
3:30 PM 48.2 °F - 30.2 °F 50% 29.98 in - WSW 11.5 mph - N/A   Clear
4:00 PM 49 °F - 30 °F 36% 29.99 in 6 mi WSW 8.9 mph - -  
4:00 PM 48.2 °F - 28.4 °F 46% 29.98 in - WNW 11.5 mph - N/A   Clear
4:30 PM 48.2 °F - 28.4 °F 46% 29.95 in 6.2 mi WSW 11.5 mph - N/A   Unknown
5:00 PM 50 °F - 27 °F 29% 29.97 in 6 mi West 11.2 mph - -  
5:00 PM 48.2 °F - 26.6 °F 43% 29.95 in 6.2 mi West 11.5 mph - N/A   Unknown
5:30 PM 46.4 °F 41.1 °F 26.6 °F 46% 29.95 in 6.2 mi WSW 11.5 mph - N/A   Unknown
6:00 PM 48 °F - 27 °F 31% 29.96 in 6 mi WSW 11.2 mph - -  
6:00 PM 46.4 °F 41.9 °F 26.6 °F 46% 29.95 in 6.2 mi WSW 9.2 mph - N/A   Unknown
6:30 PM 44.6 °F 40.7 °F 26.6 °F 49% 29.95 in 6.2 mi SW 6.9 mph - N/A   Unknown
7:00 PM 43 °F - 27 °F 41% 29.97 in 6 mi SW 6.7 mph - -  
7:00 PM 42.8 °F 38.6 °F 28.4 °F 57% 29.95 in 6.2 mi SW 6.9 mph - N/A   Unknown
7:30 PM 42.8 °F 38.6 °F 28.4 °F 57% 29.95 in 6.2 mi SW 6.9 mph - N/A   Unknown
8:00 PM 42 °F - 28 °F 45% 29.97 in 6 mi SW 6.7 mph - -  
8:00 PM 41.0 °F 36.4 °F 28.4 °F 61% 29.95 in 6.2 mi SSW 6.9 mph - N/A   Unknown
8:30 PM 41.0 °F 35.2 °F 28.4 °F 61% 29.95 in 6.2 mi SW 9.2 mph - N/A   Unknown
9:00 PM 41.0 °F 34.3 °F 28.4 °F 61% 29.95 in 6.2 mi SW 11.5 mph - N/A   Unknown
9:30 PM 39.2 °F 33.0 °F 28.4 °F 65% 29.95 in 6.2 mi WSW 9.2 mph - N/A   Unknown
10:00 PM 38 °F - 29 °F 59% 29.98 in 6 mi SW 11.2 mph - -  
10:00 PM 39.2 °F 32.0 °F 28.4 °F 65% 29.95 in 6.2 mi West 11.5 mph - N/A   Unknown
10:30 PM 37.4 °F 30.8 °F 28.4 °F 70% 29.95 in 6.2 mi WSW 9.2 mph - N/A   Unknown
11:00 PM 37 °F - 28 °F 60% 29.98 in 6 mi West 6.7 mph - -  
11:00 PM 35.6 °F 28.6 °F 26.6 °F 70% 29.95 in 6.2 mi West 9.2 mph - N/A   Unknown